sensor_id;sensor_type;location;lat;lon;timestamp;pressure;altitude;pressure_sealevel;temperature;humidity
63204;BME280;49297;43.210;27.914;2023-11-19T00:00:04;99956.03;;;2.73;82.06
63204;BME280;49297;43.210;27.914;2023-11-19T00:02:32;99963.56;;;2.77;82.12
63204;BME280;49297;43.210;27.914;2023-11-19T00:04:57;100020.25;;;2.77;81.38
63204;BME280;49297;43.210;27.914;2023-11-19T00:07:23;99977.56;;;2.76;80.80
63204;BME280;49297;43.210;27.914;2023-11-19T00:09:49;99996.41;;;2.81;81.59
63204;BME280;49297;43.210;27.914;2023-11-19T00:12:15;100006.47;;;2.75;81.40
63204;BME280;49297;43.210;27.914;2023-11-19T00:14:41;100036.25;;;2.72;81.56
63204;BME280;49297;43.210;27.914;2023-11-19T00:17:06;100015.75;;;2.66;81.44
63204;BME280;49297;43.210;27.914;2023-11-19T00:19:32;100019.22;;;2.66;81.20
63204;BME280;49297;43.210;27.914;2023-11-19T00:21:58;100040.56;;;2.73;81.39
63204;BME280;49297;43.210;27.914;2023-11-19T00:24:28;100034.59;;;2.71;81.90
63204;BME280;49297;43.210;27.914;2023-11-19T00:26:54;100069.50;;;2.70;81.30
63204;BME280;49297;43.210;27.914;2023-11-19T00:29:19;100062.59;;;2.69;81.64
63204;BME280;49297;43.210;27.914;2023-11-19T00:31:46;100054.53;;;2.72;80.67
63204;BME280;49297;43.210;27.914;2023-11-19T00:34:12;100108.09;;;2.79;80.82
63204;BME280;49297;43.210;27.914;2023-11-19T00:36:39;100056.75;;;2.78;80.58
63204;BME280;49297;43.210;27.914;2023-11-19T00:39:05;100091.78;;;2.76;80.83
63204;BME280;49297;43.210;27.914;2023-11-19T00:41:31;100087.09;;;2.81;80.36
63204;BME280;49297;43.210;27.914;2023-11-19T00:43:57;100046.59;;;2.74;81.30
63204;BME280;49297;43.210;27.914;2023-11-19T00:46:25;100112.88;;;2.73;81.10
63204;BME280;49297;43.210;27.914;2023-11-19T00:48:51;100099.94;;;2.71;80.90
63204;BME280;49297;43.210;27.914;2023-11-19T00:51:18;100099.81;;;2.73;80.94
63204;BME280;49297;43.210;27.914;2023-11-19T00:53:44;100131.19;;;2.73;81.16
63204;BME280;49297;43.210;27.914;2023-11-19T00:56:10;100108.09;;;2.79;81.46
63204;BME280;49297;43.210;27.914;2023-11-19T00:58:37;100135.09;;;2.80;80.94
63204;BME280;49297;43.210;27.914;2023-11-19T01:01:03;100119.19;;;2.83;80.73
63204;BME280;49297;43.210;27.914;2023-11-19T01:05:19;100150.88;;;2.78;80.35
63204;BME280;49297;43.210;27.914;2023-11-19T01:07:48;100178.88;;;2.76;80.96
63204;BME280;49297;43.210;27.914;2023-11-19T01:10:13;100181.41;;;2.78;80.40
63204;BME280;49297;43.210;27.914;2023-11-19T01:12:41;100181.22;;;2.81;80.14
63204;BME280;49297;43.210;27.914;2023-11-19T01:15:07;100155.16;;;2.79;79.88
63204;BME280;49297;43.210;27.914;2023-11-19T01:17:33;100181.41;;;2.78;80.17
63204;BME280;49297;43.210;27.914;2023-11-19T01:20:00;100192.31;;;2.84;80.49
63204;BME280;49297;43.210;27.914;2023-11-19T01:22:25;100205.56;;;2.81;80.35
63204;BME280;49297;43.210;27.914;2023-11-19T01:24:51;100234.78;;;2.88;80.35
63204;BME280;49297;43.210;27.914;2023-11-19T01:27:17;100223.03;;;2.81;80.08
63204;BME280;49297;43.210;27.914;2023-11-19T01:29:43;100226.63;;;2.80;80.43
63204;BME280;49297;43.210;27.914;2023-11-19T01:32:09;100223.88;;;2.81;80.31
63204;BME280;49297;43.210;27.914;2023-11-19T01:34:34;100251.44;;;2.87;80.17
63204;BME280;49297;43.210;27.914;2023-11-19T01:37:01;100238.34;;;2.87;79.42
63204;BME280;49297;43.210;27.914;2023-11-19T01:39:27;100241.88;;;2.86;79.38
63204;BME280;49297;43.210;27.914;2023-11-19T01:41:52;100234.03;;;2.86;80.04
63204;BME280;49297;43.210;27.914;2023-11-19T01:44:19;100246.38;;;2.84;79.77
63204;BME280;49297;43.210;27.914;2023-11-19T01:46:46;100236.66;;;2.86;79.75
63204;BME280;49297;43.210;27.914;2023-11-19T01:49:15;100249.63;;;2.88;79.97
63204;BME280;49297;43.210;27.914;2023-11-19T01:51:41;100238.75;;;2.94;79.48
63204;BME280;49297;43.210;27.914;2023-11-19T01:54:08;100234.41;;;2.94;79.20
63204;BME280;49297;43.210;27.914;2023-11-19T01:56:35;100240.31;;;2.83;79.08
63204;BME280;49297;43.210;27.914;2023-11-19T01:59:02;100268.97;;;2.85;79.79
63204;BME280;49297;43.210;27.914;2023-11-19T02:01:29;100245.34;;;2.86;78.98
63204;BME280;49297;43.210;27.914;2023-11-19T02:03:55;100229.88;;;2.83;80.05
63204;BME280;49297;43.210;27.914;2023-11-19T02:06:21;100249.09;;;2.82;79.93
63204;BME280;49297;43.210;27.914;2023-11-19T02:08:47;100266.56;;;2.82;79.82
63204;BME280;49297;43.210;27.914;2023-11-19T02:11:19;100241.53;;;2.78;80.31
63204;BME280;49297;43.210;27.914;2023-11-19T02:13:44;100280.03;;;2.76;79.60
63204;BME280;49297;43.210;27.914;2023-11-19T02:16:10;100251.16;;;2.77;79.48
63204;BME280;49297;43.210;27.914;2023-11-19T02:18:36;100271.16;;;2.78;80.02
63204;BME280;49297;43.210;27.914;2023-11-19T02:21:02;100272.16;;;2.76;79.66
63204;BME280;49297;43.210;27.914;2023-11-19T02:23:28;100296.34;;;2.79;79.74
63204;BME280;49297;43.210;27.914;2023-11-19T02:26:02;100279.81;;;2.79;79.23
63204;BME280;49297;43.210;27.914;2023-11-19T02:28:29;100294.47;;;2.81;79.63
63204;BME280;49297;43.210;27.914;2023-11-19T02:30:54;100311.13;;;2.80;80.20
63204;BME280;49297;43.210;27.914;2023-11-19T02:33:20;100282.03;;;2.85;79.80
63204;BME280;49297;43.210;27.914;2023-11-19T02:35:46;100283.63;;;2.88;79.85
63204;BME280;49297;43.210;27.914;2023-11-19T02:38:11;100298.50;;;2.87;79.15
63204;BME280;49297;43.210;27.914;2023-11-19T02:40:39;100316.63;;;2.76;79.36
63204;BME280;49297;43.210;27.914;2023-11-19T02:43:05;100291.63;;;2.72;78.99
63204;BME280;49297;43.210;27.914;2023-11-19T02:45:31;100304.69;;;2.72;79.14
63204;BME280;49297;43.210;27.914;2023-11-19T02:47:56;100309.09;;;2.71;79.60
63204;BME280;49297;43.210;27.914;2023-11-19T02:50:23;100297.03;;;2.69;79.78
63204;BME280;49297;43.210;27.914;2023-11-19T02:52:55;100314.59;;;2.66;79.76
63204;BME280;49297;43.210;27.914;2023-11-19T02:55:22;100301.91;;;2.60;79.91
63204;BME280;49297;43.210;27.914;2023-11-19T02:57:50;100306.28;;;2.60;79.52
63204;BME280;49297;43.210;27.914;2023-11-19T03:00:17;100315.72;;;2.62;80.14
63204;BME280;49297;43.210;27.914;2023-11-19T03:02:44;100310.19;;;2.67;80.03
63204;BME280;49297;43.210;27.914;2023-11-19T03:05:12;100351.19;;;2.66;79.85
63204;BME280;49297;43.210;27.914;2023-11-19T03:07:43;100321.78;;;2.63;79.46
63204;BME280;49297;43.210;27.914;2023-11-19T03:10:10;100333.94;;;2.64;79.86
63204;BME280;49297;43.210;27.914;2023-11-19T03:12:40;100345.50;;;2.60;80.08
63204;BME280;49297;43.210;27.914;2023-11-19T03:15:07;100349.63;;;2.64;79.87
63204;BME280;49297;43.210;27.914;2023-11-19T03:17:36;100346.25;;;2.62;79.92
63204;BME280;49297;43.210;27.914;2023-11-19T03:20:07;100348.56;;;2.66;79.29
63204;BME280;49297;43.210;27.914;2023-11-19T03:22:37;100357.47;;;2.64;79.03
63204;BME280;49297;43.210;27.914;2023-11-19T03:25:03;100362.78;;;2.62;79.26
63204;BME280;49297;43.210;27.914;2023-11-19T03:27:29;100368.09;;;2.61;79.17
63204;BME280;49297;43.210;27.914;2023-11-19T03:29:55;100357.00;;;2.57;79.03
63204;BME280;49297;43.210;27.914;2023-11-19T03:32:20;100355.22;;;2.58;79.13
63204;BME280;49297;43.210;27.914;2023-11-19T03:34:46;100369.25;;;2.57;78.79
63204;BME280;49297;43.210;27.914;2023-11-19T03:37:13;100357.91;;;2.56;78.99
63204;BME280;49297;43.210;27.914;2023-11-19T03:39:42;100385.56;;;2.60;78.56
63204;BME280;49297;43.210;27.914;2023-11-19T03:42:08;100359.59;;;2.57;78.63
63204;BME280;49297;43.210;27.914;2023-11-19T03:44:34;100354.47;;;2.56;79.17
63204;BME280;49297;43.210;27.914;2023-11-19T03:46:59;100360.44;;;2.58;78.67
63204;BME280;49297;43.210;27.914;2023-11-19T03:49:25;100348.41;;;2.55;79.14
63204;BME280;49297;43.210;27.914;2023-11-19T03:51:51;100346.63;;;2.56;78.70
63204;BME280;49297;43.210;27.914;2023-11-19T03:54:16;100337.22;;;2.53;78.41
63204;BME280;49297;43.210;27.914;2023-11-19T03:56:42;100343.09;;;2.57;78.90
63204;BME280;49297;43.210;27.914;2023-11-19T03:59:10;100361.28;;;2.58;78.21
63204;BME280;49297;43.210;27.914;2023-11-19T04:01:36;100352.31;;;2.62;77.80
63204;BME280;49297;43.210;27.914;2023-11-19T04:04:03;100341.97;;;2.61;78.20
63204;BME280;49297;43.210;27.914;2023-11-19T04:06:28;100350.63;;;2.61;77.62
63204;BME280;49297;43.210;27.914;2023-11-19T04:08:54;100349.16;;;2.57;77.34
63204;BME280;49297;43.210;27.914;2023-11-19T04:11:20;100364.94;;;2.56;77.79
63204;BME280;49297;43.210;27.914;2023-11-19T04:13:47;100361.09;;;2.61;77.87
63204;BME280;49297;43.210;27.914;2023-11-19T04:16:12;100384.72;;;2.60;76.68
63204;BME280;49297;43.210;27.914;2023-11-19T04:18:38;100364.44;;;2.63;76.36
63204;BME280;49297;43.210;27.914;2023-11-19T04:21:06;100383.97;;;2.58;76.08
63204;BME280;49297;43.210;27.914;2023-11-19T04:23:35;100400.59;;;2.57;75.50
63204;BME280;49297;43.210;27.914;2023-11-19T04:26:04;100390.97;;;2.57;76.40
63204;BME280;49297;43.210;27.914;2023-11-19T04:28:30;100381.81;;;2.64;75.54
63204;BME280;49297;43.210;27.914;2023-11-19T04:30:56;100377.16;;;2.70;75.81
63204;BME280;49297;43.210;27.914;2023-11-19T04:33:23;100400.94;;;2.65;75.46
63204;BME280;49297;43.210;27.914;2023-11-19T04:35:49;100395.53;;;2.68;74.95
63204;BME280;49297;43.210;27.914;2023-11-19T04:38:15;100389.19;;;2.72;74.37
63204;BME280;49297;43.210;27.914;2023-11-19T04:40:41;100379.38;;;2.76;73.90
63204;BME280;49297;43.210;27.914;2023-11-19T04:43:07;100380.09;;;2.78;74.01
63204;BME280;49297;43.210;27.914;2023-11-19T04:45:32;100406.16;;;2.79;74.24
63204;BME280;49297;43.210;27.914;2023-11-19T04:47:59;100398.78;;;2.86;73.34
63204;BME280;49297;43.210;27.914;2023-11-19T04:50:25;100391.53;;;2.77;73.37
63204;BME280;49297;43.210;27.914;2023-11-19T04:52:52;100407.78;;;2.82;73.67
63204;BME280;49297;43.210;27.914;2023-11-19T04:55:19;100405.03;;;2.69;74.07
63204;BME280;49297;43.210;27.914;2023-11-19T04:57:45;100399.94;;;2.67;74.32
63204;BME280;49297;43.210;27.914;2023-11-19T05:00:11;100407.88;;;2.66;74.97
63204;BME280;49297;43.210;27.914;2023-11-19T05:02:37;100403.88;;;2.60;74.79
63204;BME280;49297;43.210;27.914;2023-11-19T05:05:03;100398.81;;;2.57;75.63
63204;BME280;49297;43.210;27.914;2023-11-19T05:07:31;100425.03;;;2.56;75.22
63204;BME280;49297;43.210;27.914;2023-11-19T05:09:57;100398.44;;;2.49;75.65
63204;BME280;49297;43.210;27.914;2023-11-19T05:12:23;100425.97;;;2.40;76.45
63204;BME280;49297;43.210;27.914;2023-11-19T05:14:49;100431.84;;;2.44;76.35
63204;BME280;49297;43.210;27.914;2023-11-19T05:17:17;100424.00;;;2.44;76.60
63204;BME280;49297;43.210;27.914;2023-11-19T05:19:43;100380.53;;;2.43;77.05
63204;BME280;49297;43.210;27.914;2023-11-19T05:22:09;100451.63;;;2.34;75.85
63204;BME280;49297;43.210;27.914;2023-11-19T05:24:35;100436.50;;;2.39;76.26
63204;BME280;49297;43.210;27.914;2023-11-19T05:27:01;100432.78;;;2.43;75.27
63204;BME280;49297;43.210;27.914;2023-11-19T05:29:27;100427.19;;;2.35;75.30
63204;BME280;49297;43.210;27.914;2023-11-19T05:31:54;100468.06;;;2.36;75.54
63204;BME280;49297;43.210;27.914;2023-11-19T05:34:21;100459.19;;;2.38;75.39
63204;BME280;49297;43.210;27.914;2023-11-19T05:36:47;100456.41;;;2.41;74.81
63204;BME280;49297;43.210;27.914;2023-11-19T05:39:13;100464.16;;;2.43;74.24
63204;BME280;49297;43.210;27.914;2023-11-19T05:41:38;100470.47;;;2.39;73.74
63204;BME280;49297;43.210;27.914;2023-11-19T05:44:04;100492.25;;;2.39;73.79
63204;BME280;49297;43.210;27.914;2023-11-19T05:46:30;100491.38;;;2.39;73.81
63204;BME280;49297;43.210;27.914;2023-11-19T05:48:55;100520.31;;;2.36;73.60
63204;BME280;49297;43.210;27.914;2023-11-19T05:51:21;100476.72;;;2.36;73.91
63204;BME280;49297;43.210;27.914;2023-11-19T05:53:49;100493.16;;;2.38;73.48
63204;BME280;49297;43.210;27.914;2023-11-19T05:56:15;100518.38;;;2.39;72.24
63204;BME280;49297;43.210;27.914;2023-11-19T05:58:47;100544.50;;;2.39;72.63
63204;BME280;49297;43.210;27.914;2023-11-19T06:01:13;100534.88;;;2.40;72.10
63204;BME280;49297;43.210;27.914;2023-11-19T06:03:41;100518.63;;;2.35;72.30
63204;BME280;49297;43.210;27.914;2023-11-19T06:06:08;100528.91;;;2.38;71.71
63204;BME280;49297;43.210;27.914;2023-11-19T06:08:35;100514.22;;;2.35;71.70
63204;BME280;49297;43.210;27.914;2023-11-19T06:11:01;100478.78;;;2.31;71.50
63204;BME280;49297;43.210;27.914;2023-11-19T06:13:28;100516.84;;;2.35;71.06
63204;BME280;49297;43.210;27.914;2023-11-19T06:15:56;100531.97;;;2.30;70.95
63204;BME280;49297;43.210;27.914;2023-11-19T06:18:22;100523.94;;;2.33;71.55
63204;BME280;49297;43.210;27.914;2023-11-19T06:20:48;100541.22;;;2.36;70.62
63204;BME280;49297;43.210;27.914;2023-11-19T06:23:16;100532.81;;;2.31;70.89
63204;BME280;49297;43.210;27.914;2023-11-19T06:25:43;100533.63;;;2.31;70.80
63204;BME280;49297;43.210;27.914;2023-11-19T06:28:09;100513.41;;;2.35;70.11
63204;BME280;49297;43.210;27.914;2023-11-19T06:30:35;100540.47;;;2.34;70.11
63204;BME280;49297;43.210;27.914;2023-11-19T06:33:01;100519.47;;;2.35;69.82
63204;BME280;49297;43.210;27.914;2023-11-19T06:35:28;100514.59;;;2.29;69.86
63204;BME280;49297;43.210;27.914;2023-11-19T06:38:02;100519.66;;;2.32;70.10
63204;BME280;49297;43.210;27.914;2023-11-19T06:40:33;100532.97;;;2.27;70.07
63204;BME280;49297;43.210;27.914;2023-11-19T06:43:01;100498.53;;;2.21;69.79
63204;BME280;49297;43.210;27.914;2023-11-19T06:45:28;100540.31;;;2.21;70.04
63204;BME280;49297;43.210;27.914;2023-11-19T06:47:54;100559.09;;;2.27;69.95
63204;BME280;49297;43.210;27.914;2023-11-19T06:50:20;100543.22;;;2.46;68.75
63204;BME280;49297;43.210;27.914;2023-11-19T06:52:46;100537.66;;;2.37;67.86
63204;BME280;49297;43.210;27.914;2023-11-19T06:55:12;100531.78;;;2.33;68.45
63204;BME280;49297;43.210;27.914;2023-11-19T06:57:38;100552.44;;;2.38;67.85
63204;BME280;49297;43.210;27.914;2023-11-19T07:00:05;100555.38;;;2.32;68.02
63204;BME280;49297;43.210;27.914;2023-11-19T07:02:31;100577.72;;;2.37;68.37
63204;BME280;49297;43.210;27.914;2023-11-19T07:04:58;100575.84;;;2.39;68.24
63204;BME280;49297;43.210;27.914;2023-11-19T07:07:23;100567.06;;;2.40;68.05
63204;BME280;49297;43.210;27.914;2023-11-19T07:09:49;100562.78;;;2.39;68.55
63204;BME280;49297;43.210;27.914;2023-11-19T07:12:15;100569.69;;;2.40;68.50
63204;BME280;49297;43.210;27.914;2023-11-19T07:14:41;100574.16;;;2.38;68.75
63204;BME280;49297;43.210;27.914;2023-11-19T07:17:07;100586.22;;;2.41;68.86
63204;BME280;49297;43.210;27.914;2023-11-19T07:19:34;100610.59;;;2.41;68.53
63204;BME280;49297;43.210;27.914;2023-11-19T07:22:02;100596.94;;;2.36;68.77
63204;BME280;49297;43.210;27.914;2023-11-19T07:24:28;100591.63;;;2.38;69.07
63204;BME280;49297;43.210;27.914;2023-11-19T07:27:00;100603.84;;;2.37;69.55
63204;BME280;49297;43.210;27.914;2023-11-19T07:29:26;100617.75;;;2.38;68.94
63204;BME280;49297;43.210;27.914;2023-11-19T07:31:54;100614.84;;;2.42;68.54
63204;BME280;49297;43.210;27.914;2023-11-19T07:34:24;100603.75;;;2.39;68.69
63204;BME280;49297;43.210;27.914;2023-11-19T07:36:50;100623.06;;;2.36;69.07
63204;BME280;49297;43.210;27.914;2023-11-19T07:39:15;100597.84;;;2.35;68.27
63204;BME280;49297;43.210;27.914;2023-11-19T07:41:41;100616.41;;;2.31;69.09
63204;BME280;49297;43.210;27.914;2023-11-19T07:44:07;100618.59;;;2.38;68.70
63204;BME280;49297;43.210;27.914;2023-11-19T07:46:33;100610.44;;;2.28;68.56
63204;BME280;49297;43.210;27.914;2023-11-19T07:48:58;100616.50;;;2.29;69.42
63204;BME280;49297;43.210;27.914;2023-11-19T07:51:24;100608.06;;;2.24;69.24
63204;BME280;49297;43.210;27.914;2023-11-19T07:53:50;100604.56;;;2.25;69.98
63204;BME280;49297;43.210;27.914;2023-11-19T07:56:15;100614.63;;;2.31;70.29
63204;BME280;49297;43.210;27.914;2023-11-19T07:58:42;100602.91;;;2.38;69.49
63204;BME280;49297;43.210;27.914;2023-11-19T08:01:09;100600.13;;;2.41;69.69
63204;BME280;49297;43.210;27.914;2023-11-19T08:03:35;100612.38;;;2.41;68.84
63204;BME280;49297;43.210;27.914;2023-11-19T08:06:03;100626.88;;;2.31;68.78
63204;BME280;49297;43.210;27.914;2023-11-19T08:08:29;100619.03;;;2.31;69.37
63204;BME280;49297;43.210;27.914;2023-11-19T08:10:56;100603.19;;;2.34;69.89
63204;BME280;49297;43.210;27.914;2023-11-19T08:13:23;100629.19;;;2.35;68.98
63204;BME280;49297;43.210;27.914;2023-11-19T08:15:49;100595.34;;;2.34;69.11
63204;BME280;49297;43.210;27.914;2023-11-19T08:18:15;100624.94;;;2.34;68.82
63204;BME280;49297;43.210;27.914;2023-11-19T08:20:41;100623.06;;;2.36;69.13
63204;BME280;49297;43.210;27.914;2023-11-19T08:23:08;100621.03;;;2.41;68.81
63204;BME280;49297;43.210;27.914;2023-11-19T08:25:34;100621.88;;;2.42;69.28
63204;BME280;49297;43.210;27.914;2023-11-19T08:28:00;100634.00;;;2.43;68.86
63204;BME280;49297;43.210;27.914;2023-11-19T08:30:26;100625.44;;;2.41;68.75
63204;BME280;49297;43.210;27.914;2023-11-19T08:32:52;100631.31;;;2.44;69.25
63204;BME280;49297;43.210;27.914;2023-11-19T08:35:18;100647.31;;;2.54;68.53
63204;BME280;49297;43.210;27.914;2023-11-19T08:37:43;100633.66;;;2.49;68.24
63204;BME280;49297;43.210;27.914;2023-11-19T08:40:11;100636.34;;;2.47;68.22
63204;BME280;49297;43.210;27.914;2023-11-19T08:42:38;100639.03;;;2.46;69.17
63204;BME280;49297;43.210;27.914;2023-11-19T08:45:05;100635.94;;;2.55;68.56
63204;BME280;49297;43.210;27.914;2023-11-19T08:47:31;100639.63;;;2.51;68.56
63204;BME280;49297;43.210;27.914;2023-11-19T08:49:56;100642.69;;;2.43;68.27
63204;BME280;49297;43.210;27.914;2023-11-19T08:52:22;100642.59;;;2.45;68.75
63204;BME280;49297;43.210;27.914;2023-11-19T08:54:48;100642.25;;;2.51;68.70
63204;BME280;49297;43.210;27.914;2023-11-19T08:57:14;100630.88;;;2.52;68.18
63204;BME280;49297;43.210;27.914;2023-11-19T08:59:40;100609.47;;;2.45;68.59
63204;BME280;49297;43.210;27.914;2023-11-19T09:02:06;100601.78;;;2.42;68.26
63204;BME280;49297;43.210;27.914;2023-11-19T09:04:32;100598.34;;;2.42;69.05
63204;BME280;49297;43.210;27.914;2023-11-19T09:06:59;100601.63;;;2.45;68.37
63204;BME280;49297;43.210;27.914;2023-11-19T09:09:24;100612.75;;;2.49;68.00
63204;BME280;49297;43.210;27.914;2023-11-19T09:11:51;100593.53;;;2.50;68.06
63204;BME280;49297;43.210;27.914;2023-11-19T09:14:16;100573.44;;;2.51;68.05
63204;BME280;49297;43.210;27.914;2023-11-19T09:16:44;100614.69;;;2.45;68.31
63204;BME280;49297;43.210;27.914;2023-11-19T09:19:09;100588.31;;;2.50;68.00
63204;BME280;49297;43.210;27.914;2023-11-19T09:21:35;100596.31;;;2.47;68.43
63204;BME280;49297;43.210;27.914;2023-11-19T09:24:04;100584.66;;;2.53;68.36
63204;BME280;49297;43.210;27.914;2023-11-19T09:26:30;100580.00;;;2.58;67.57
63204;BME280;49297;43.210;27.914;2023-11-19T09:28:56;100575.72;;;2.57;67.76
63204;BME280;49297;43.210;27.914;2023-11-19T09:31:22;100553.13;;;2.56;67.36
63204;BME280;49297;43.210;27.914;2023-11-19T09:33:49;100571.16;;;2.60;67.75
63204;BME280;49297;43.210;27.914;2023-11-19T09:36:15;100569.88;;;2.67;66.95
63204;BME280;49297;43.210;27.914;2023-11-19T09:38:43;100550.44;;;2.72;67.63
63204;BME280;49297;43.210;27.914;2023-11-19T09:41:10;100548.09;;;2.67;66.85
63204;BME280;49297;43.210;27.914;2023-11-19T09:43:39;100563.69;;;2.69;66.75
63204;BME280;49297;43.210;27.914;2023-11-19T09:46:06;100595.91;;;2.69;66.28
63204;BME280;49297;43.210;27.914;2023-11-19T09:48:35;100593.19;;;2.71;66.42
63204;BME280;49297;43.210;27.914;2023-11-19T09:51:06;100582.81;;;2.69;66.59
63204;BME280;49297;43.210;27.914;2023-11-19T09:53:33;100591.25;;;2.74;66.47
63204;BME280;49297;43.210;27.914;2023-11-19T09:56:00;100595.38;;;2.78;65.97
63204;BME280;49297;43.210;27.914;2023-11-19T09:58:29;100613.69;;;2.78;65.83
63204;BME280;49297;43.210;27.914;2023-11-19T10:00:57;100594.34;;;2.81;65.60
63204;BME280;49297;43.210;27.914;2023-11-19T10:03:33;100594.34;;;2.81;64.96
63204;BME280;49297;43.210;27.914;2023-11-19T10:06:09;100595.28;;;2.80;65.33
63204;BME280;49297;43.210;27.914;2023-11-19T10:08:39;100597.03;;;2.79;65.38
63204;BME280;49297;43.210;27.914;2023-11-19T10:11:06;100599.75;;;2.78;65.19
63204;BME280;49297;43.210;27.914;2023-11-19T10:13:35;100601.28;;;2.82;65.67
63204;BME280;49297;43.210;27.914;2023-11-19T10:16:11;100589.88;;;2.83;65.52
63204;BME280;49297;43.210;27.914;2023-11-19T10:18:49;100619.13;;;2.90;66.50
63204;BME280;49297;43.210;27.914;2023-11-19T10:21:20;100618.94;;;2.93;65.50
63204;BME280;49297;43.210;27.914;2023-11-19T10:23:56;100600.16;;;3.00;66.04
63204;BME280;49297;43.210;27.914;2023-11-19T10:26:28;100594.47;;;3.08;66.04
63204;BME280;49297;43.210;27.914;2023-11-19T10:28:55;100621.84;;;3.17;65.26
63204;BME280;49297;43.210;27.914;2023-11-19T10:31:22;100627.94;;;3.17;64.95
63204;BME280;49297;43.210;27.914;2023-11-19T10:33:52;100637.56;;;3.17;64.21
63204;BME280;49297;43.210;27.914;2023-11-19T10:36:18;100627.84;;;3.19;64.92
63204;BME280;49297;43.210;27.914;2023-11-19T10:38:56;100606.72;;;3.22;65.31
63204;BME280;49297;43.210;27.914;2023-11-19T10:41:32;100596.81;;;3.27;65.05
63204;BME280;49297;43.210;27.914;2023-11-19T10:43:59;100621.78;;;3.33;64.89
63204;BME280;49297;43.210;27.914;2023-11-19T10:46:40;100634.50;;;3.39;63.26
63204;BME280;49297;43.210;27.914;2023-11-19T10:49:09;100614.41;;;3.39;62.59
63204;BME280;49297;43.210;27.914;2023-11-19T10:51:41;100614.41;;;3.39;62.46
63204;BME280;49297;43.210;27.914;2023-11-19T10:54:10;100658.63;;;3.44;62.23
63204;BME280;49297;43.210;27.914;2023-11-19T10:56:40;100596.34;;;3.49;62.78
63204;BME280;49297;43.210;27.914;2023-11-19T10:59:08;100628.88;;;3.59;61.13
63204;BME280;49297;43.210;27.914;2023-11-19T11:01:43;100589.09;;;3.67;60.64
63204;BME280;49297;43.210;27.914;2023-11-19T11:04:23;100602.75;;;3.72;60.92
63204;BME280;49297;43.210;27.914;2023-11-19T11:06:51;100644.47;;;3.75;60.03
63204;BME280;49297;43.210;27.914;2023-11-19T11:09:17;100642.13;;;3.71;60.76
63204;BME280;49297;43.210;27.914;2023-11-19T11:11:47;100621.84;;;3.74;61.33
63204;BME280;49297;43.210;27.914;2023-11-19T11:14:13;100641.38;;;3.83;62.03
63204;BME280;49297;43.210;27.914;2023-11-19T11:16:43;100625.94;;;3.93;61.56
63204;BME280;49297;43.210;27.914;2023-11-19T11:19:12;100625.84;;;3.94;60.93
63204;BME280;49297;43.210;27.914;2023-11-19T11:21:40;100615.34;;;3.94;61.01
63204;BME280;49297;43.210;27.914;2023-11-19T11:24:29;100638.06;;;3.94;60.40
63204;BME280;49297;43.210;27.914;2023-11-19T11:27:16;100648.81;;;4.04;60.28
63204;BME280;49297;43.210;27.914;2023-11-19T11:33:20;100675.22;;;4.28;59.92
63204;BME280;49297;43.210;27.914;2023-11-19T11:35:53;100693.94;;;4.36;60.41
63204;BME280;49297;43.210;27.914;2023-11-19T11:38:24;100696.63;;;4.49;59.60
63204;BME280;49297;43.210;27.914;2023-11-19T11:41:16;100706.00;;;4.53;59.66
63204;BME280;49297;43.210;27.914;2023-11-19T11:43:45;100705.88;;;4.54;59.65
63204;BME280;49297;43.210;27.914;2023-11-19T11:49:06;100761.31;;;4.63;60.19
63204;BME280;49297;43.210;27.914;2023-11-19T11:56:37;100797.97;;;4.77;60.76
63204;BME280;49297;43.210;27.914;2023-11-19T11:59:08;100797.47;;;4.85;60.48
63204;BME280;49297;43.210;27.914;2023-11-19T12:01:35;100808.88;;;4.98;61.00
63204;BME280;49297;43.210;27.914;2023-11-19T12:04:00;100812.59;;;5.08;60.49
63204;BME280;49297;43.210;27.914;2023-11-19T12:06:27;100802.47;;;5.02;61.06
63204;BME280;49297;43.210;27.914;2023-11-19T12:08:59;100801.78;;;5.13;61.29
63204;BME280;49297;43.210;27.914;2023-11-19T12:11:25;100823.78;;;5.25;60.33
63204;BME280;49297;43.210;27.914;2023-11-19T12:13:54;100816.19;;;5.20;60.36
63204;BME280;49297;43.210;27.914;2023-11-19T12:16:21;100834.44;;;5.09;61.15
63204;BME280;49297;43.210;27.914;2023-11-19T12:18:47;100809.44;;;5.03;61.09
63204;BME280;49297;43.210;27.914;2023-11-19T12:21:28;100804.88;;;4.92;61.51
63204;BME280;49297;43.210;27.914;2023-11-19T12:23:55;100810.25;;;4.76;62.47
63204;BME280;49297;43.210;27.914;2023-11-19T12:26:35;100823.31;;;4.64;62.10
63204;BME280;49297;43.210;27.914;2023-11-19T12:29:01;100829.41;;;4.64;62.87
63204;BME280;49297;43.210;27.914;2023-11-19T12:31:29;100821.72;;;4.61;63.08
63204;BME280;49297;43.210;27.914;2023-11-19T12:33:57;100829.75;;;4.58;63.62
63204;BME280;49297;43.210;27.914;2023-11-19T12:36:23;100845.13;;;4.64;63.32
63204;BME280;49297;43.210;27.914;2023-11-19T12:38:49;100857.59;;;4.61;63.79
63204;BME280;49297;43.210;27.914;2023-11-19T12:41:16;100856.75;;;4.60;63.66
63204;BME280;49297;43.210;27.914;2023-11-19T12:43:46;100865.72;;;4.56;64.30
63204;BME280;49297;43.210;27.914;2023-11-19T12:46:22;100857.59;;;4.61;64.67
63204;BME280;49297;43.210;27.914;2023-11-19T12:48:49;100875.94;;;4.61;64.20
63204;BME280;49297;43.210;27.914;2023-11-19T12:51:15;100874.06;;;4.63;64.76
63204;BME280;49297;43.210;27.914;2023-11-19T12:53:52;100888.66;;;4.67;64.65
63204;BME280;49297;43.210;27.914;2023-11-19T12:56:21;100909.56;;;4.68;64.76
63204;BME280;49297;43.210;27.914;2023-11-19T12:58:48;100900.13;;;4.66;64.54
63204;BME280;49297;43.210;27.914;2023-11-19T13:01:18;100902.09;;;4.62;65.24
63204;BME280;49297;43.210;27.914;2023-11-19T13:03:45;100918.47;;;4.66;64.78